Time;durP1;ratioP1;P1;durP2;ratioP2;P2;SDS_P1;SDS_P2;PMS_P1;PMS_P2;Temp;Humidity;BMP_temperature;BMP_pressure;BME280_temperature;BME280_humidity;BME280_pressure;Samples;Min_cycle;Max_cycle;Signal;HPM_P1;HPM_P2
2022/10/26 00:00:05;;;;;;;6.28;1.40;;;;;;;16.59;59.15;99117.78;4501542;31;20115;-80
2022/10/26 00:02:30;;;;;;;6.40;1.35;;;;;;;16.56;59.24;99123.31;4473355;32;20162;-80
2022/10/26 00:04:55;;;;;;;4.87;1.30;;;;;;;16.57;59.31;99119.69;4485800;32;20444;-79
2022/10/26 00:07:24;;;;;;;6.07;1.50;;;;;;;16.58;59.45;99128.53;4485579;32;20084;-79
2022/10/26 00:09:49;;;;;;;5.55;1.50;;;;;;;16.52;59.69;99121.84;4485550;32;20665;-80
2022/10/26 00:12:15;;;;;;;5.18;1.17;;;;;;;16.45;60.34;99123.25;4485600;32;20092;-80
2022/10/26 00:14:40;;;;;;;5.65;1.20;;;;;;;16.38;60.69;99129.97;4485667;32;20139;-80
2022/10/26 00:17:06;;;;;;;5.72;1.37;;;;;;;16.50;60.07;99132.59;4485602;32;20330;-80
2022/10/26 00:19:34;;;;;;;4.93;1.27;;;;;;;16.57;60.09;99130.31;4485659;32;20128;-80
2022/10/26 00:22:00;;;;;;;6.07;1.50;;;;;;;16.60;60.20;99134.59;4473419;32;20516;-80
2022/10/26 00:24:25;;;;;;;4.43;1.27;;;;;;;16.65;60.00;99135.06;4488076;32;20187;-80
2022/10/26 00:26:50;;;;;;;4.93;1.27;;;;;;;16.53;60.71;99131.50;4487658;32;20111;-80
2022/10/26 00:29:17;;;;;;;3.62;1.42;;;;;;;16.48;61.08;99129.19;4487779;32;20450;-80
2022/10/26 00:31:42;;;;;;;6.78;1.70;;;;;;;16.40;61.83;99133.38;4487793;32;20715;-80
2022/10/26 00:34:09;;;;;;;4.05;1.65;;;;;;;15.90;63.68;99142.22;4460568;32;20159;-81
2022/10/26 00:36:35;;;;;;;5.75;1.30;;;;;;;16.01;63.54;99141.47;4473597;32;20111;-80
2022/10/26 00:39:00;;;;;;;5.95;1.70;;;;;;;15.92;63.96;99135.00;4487772;32;20092;-80
2022/10/26 00:41:29;;;;;;;5.35;1.35;;;;;;;16.02;63.60;99134.34;4487674;32;20096;-80
2022/10/26 00:43:55;;;;;;;5.70;1.60;;;;;;;16.13;63.22;99131.78;4473404;32;20123;-80
2022/10/26 00:46:30;;;;;;;6.75;1.40;;;;;;;16.19;62.98;99123.34;4487794;32;20441;-80
2022/10/26 00:48:58;;;;;;;5.87;1.67;;;;;;;16.28;62.92;99121.81;4460430;32;20099;-81
2022/10/26 00:51:34;;;;;;;8.25;1.65;;;;;;;16.30;62.89;99125.22;4502281;31;20101;-81
2022/10/26 00:54:02;;;;;;;6.32;1.55;;;;;;;16.41;62.41;99117.31;4489469;31;20108;-82
2022/10/26 00:56:28;;;;;;;6.22;1.50;;;;;;;16.49;62.11;99117.59;4502397;31;20096;-81
2022/10/26 00:58:54;;;;;;;5.90;1.50;;;;;;;16.25;63.43;99112.28;4503530;31;20113;-81
2022/10/26 01:01:20;;;;;;;5.97;1.40;;;;;;;16.33;63.04;99116.19;4502299;31;20093;-80
2022/10/26 01:03:46;;;;;;;7.15;1.48;;;;;;;16.19;64.16;99110.06;4501992;31;20383;-81
2022/10/26 01:06:12;;;;;;;5.87;1.37;;;;;;;16.41;63.13;99112.00;4503449;31;20112;-81
2022/10/26 01:08:38;;;;;;;4.47;1.40;;;;;;;16.34;63.41;99118.75;4502132;31;20155;-81
2022/10/26 01:11:04;;;;;;;5.37;1.52;;;;;;;16.43;63.00;99115.38;4501995;31;20508;-81
2022/10/26 01:13:32;;;;;;;7.00;1.55;;;;;;;16.47;62.75;99114.19;4502489;31;20126;-81
2022/10/26 01:16:15;;;;;;;6.00;1.65;;;;;;;16.43;62.96;99117.19;4503350;31;20092;-81
2022/10/26 01:19:07;;;;;;;6.20;1.90;;;;;;;16.40;63.41;99117.41;4503284;31;20080;-81
2022/10/26 01:21:48;;;;;;;4.57;1.40;;;;;;;16.53;63.43;99123.53;4502113;31;20116;-81
2022/10/26 01:24:29;;;;;;;3.95;1.37;;;;;;;16.46;63.62;99117.00;4488872;31;20100;-81
2022/10/26 01:27:00;;;;;;;5.47;1.40;;;;;;;16.40;64.35;99118.28;4503330;31;20088;-81
2022/10/26 01:29:39;;;;;;;6.22;1.45;;;;;;;16.41;64.50;99116.47;4503179;31;20542;-81
2022/10/26 01:32:10;;;;;;;4.82;1.40;;;;;;;16.46;64.07;99114.34;4501992;31;20127;-81
2022/10/26 01:34:42;;;;;;;7.87;1.60;;;;;;;16.44;63.87;99109.13;4502292;31;20103;-81
2022/10/26 01:37:14;;;;;;;4.53;1.40;;;;;;;16.45;63.75;99110.81;4501979;31;20554;-81
2022/10/26 01:40:06;;;;;;;6.00;1.50;;;;;;;16.42;63.90;99099.56;4502036;31;20171;-81
2022/10/26 01:42:34;;;;;;;3.42;1.23;;;;;;;16.48;63.73;99104.44;4423003;32;20106;-81
2022/10/26 01:45:06;;;;;;;4.97;1.50;;;;;;;16.46;63.70;99109.84;4410318;32;20106;-81
2022/10/26 01:47:32;;;;;;;4.25;1.37;;;;;;;16.41;64.01;99103.16;4410316;32;20194;-81
2022/10/26 01:49:59;;;;;;;7.53;1.80;;;;;;;16.35;64.62;99100.97;4397843;32;20105;-81
2022/10/26 01:52:25;;;;;;;7.20;1.53;;;;;;;16.26;65.30;99100.69;4410508;32;20178;-81
2022/10/26 01:54:50;;;;;;;5.25;1.48;;;;;;;16.25;65.56;99098.97;4410489;32;20386;-81
2022/10/26 01:57:18;;;;;;;5.47;1.35;;;;;;;16.39;65.28;99100.63;4410106;32;20504;-81
2022/10/26 02:00:15;;;;;;;3.33;1.35;;;;;;;16.42;65.02;99094.25;4422790;32;20119;-80
2022/10/26 02:03:14;;;;;;;5.80;1.20;;;;;;;16.36;65.24;99089.34;4416311;32;20148;-80
2022/10/26 02:06:19;;;;;;;6.07;1.40;;;;;;;16.48;64.54;99091.97;4410100;32;20473;-81
2022/10/26 02:09:01;;;;;;;4.18;1.40;;;;;;;16.45;64.59;99089.53;4362452;32;20091;-81
2022/10/26 02:11:36;;;;;;;7.40;1.30;;;;;;;16.45;64.57;99097.50;4362198;32;20247;-81
2022/10/26 02:14:05;;;;;;;4.45;1.50;;;;;;;16.45;64.49;99091.34;4362349;32;20163;-82
2022/10/26 02:16:39;;;;;;;4.35;1.45;;;;;;;16.45;64.35;99091.34;4362422;32;20099;-82
2022/10/26 02:19:13;;;;;;;5.85;1.30;;;;;;;16.44;64.22;99087.00;4372948;32;20116;-81
2022/10/26 02:21:48;;;;;;;6.40;1.65;;;;;;;16.45;64.00;99086.87;4438168;32;20089;-81
2022/10/26 02:24:14;;;;;;;4.60;1.30;;;;;;;16.41;63.97;99088.06;4425279;32;20418;-80
2022/10/26 02:26:41;;;;;;;4.60;1.40;;;;;;;16.41;63.90;99097.84;4425211;32;20102;-80
2022/10/26 02:29:09;;;;;;;4.75;1.27;;;;;;;16.43;63.84;99090.59;4425110;32;20101;-80
2022/10/26 02:31:35;;;;;;;3.53;1.25;;;;;;;16.41;63.84;99088.06;4438108;32;20527;-80
2022/10/26 02:34:05;;;;;;;5.55;1.40;;;;;;;16.39;63.88;99086.50;4425123;32;20162;-81
2022/10/26 02:36:33;;;;;;;5.80;1.48;;;;;;;16.34;64.25;99094.81;4425215;32;20127;-81
2022/10/26 02:38:59;;;;;;;6.78;1.50;;;;;;;16.38;64.10;99093.63;4425222;32;20813;-81
2022/10/26 02:41:27;;;;;;;6.93;1.70;;;;;;;16.36;64.12;99090.22;4425053;32;20108;-81
2022/10/26 02:43:57;;;;;;;7.45;1.85;;;;;;;16.38;64.26;99098.06;4487326;31;20096;-82
2022/10/26 02:46:24;;;;;;;8.82;1.92;;;;;;;16.43;64.04;99098.59;4485942;31;20383;-81
2022/10/26 02:48:49;;;;;;;5.95;1.65;;;;;;;16.40;63.99;99104.13;4487296;31;20076;-81
2022/10/26 02:51:19;;;;;;;5.90;1.50;;;;;;;16.40;63.95;99097.00;4502058;31;20118;-81
2022/10/26 02:53:49;;;;;;;5.70;1.48;;;;;;;16.39;64.01;99105.94;4501677;31;20148;-81
2022/10/26 02:56:22;;;;;;;6.45;2.00;;;;;;;16.38;63.93;99098.94;4486033;31;20114;-81
2022/10/26 02:58:56;;;;;;;5.53;1.65;;;;;;;16.39;63.96;99105.94;4485635;32;20436;-81
2022/10/26 03:01:21;;;;;;;5.57;1.52;;;;;;;16.40;63.90;99104.13;4486760;31;20103;-81
2022/10/26 03:03:47;;;;;;;4.40;1.52;;;;;;;16.37;63.87;99115.84;4486546;32;20128;-81
2022/10/26 03:06:19;;;;;;;7.45;1.60;;;;;;;16.40;63.79;99109.44;4486668;31;20111;-81
2022/10/26 03:08:45;;;;;;;6.60;1.65;;;;;;;16.37;63.85;99107.03;4485421;32;20081;-81
2022/10/26 03:11:10;;;;;;;6.05;1.60;;;;;;;16.35;63.82;99103.63;4485106;32;20111;-81
2022/10/26 03:13:36;;;;;;;4.87;1.33;;;;;;;16.33;63.83;99117.03;4485346;32;20109;-82
2022/10/26 03:16:01;;;;;;;5.47;1.50;;;;;;;16.35;63.77;99114.25;4486597;32;20119;-82
2022/10/26 03:18:26;;;;;;;5.78;1.35;;;;;;;16.30;63.80;99118.13;4486326;32;20100;-81
2022/10/26 03:20:52;;;;;;;5.82;1.30;;;;;;;16.31;63.76;99124.28;4486043;32;20076;-82
2022/10/26 03:23:17;;;;;;;6.25;1.40;;;;;;;16.30;63.76;99118.13;4486341;32;20134;-81
2022/10/26 03:25:43;;;;;;;4.50;1.20;;;;;;;16.27;63.92;99123.63;4485157;32;20101;-81
2022/10/26 03:28:08;;;;;;;4.55;1.20;;;;;;;16.28;63.82;99117.37;4484948;32;20107;-81
2022/10/26 03:30:34;;;;;;;5.95;1.27;;;;;;;16.28;63.76;99116.50;4486225;31;20088;-81
2022/10/26 03:32:59;;;;;;;6.37;1.60;;;;;;;16.30;63.64;99122.56;4485118;32;20146;-81
2022/10/26 03:35:24;;;;;;;5.20;1.30;;;;;;;16.30;63.55;99118.13;4486074;32;20111;-81
2022/10/26 03:37:50;;;;;;;3.50;1.20;;;;;;;16.30;63.45;99126.09;4486087;31;20108;-81
2022/10/26 03:40:15;;;;;;;6.10;1.42;;;;;;;16.27;63.41;99125.47;4486168;31;20167;-81
2022/10/26 03:42:41;;;;;;;6.70;1.77;;;;;;;16.30;63.21;99120.78;4485981;32;20084;-81
2022/10/26 03:45:08;;;;;;;6.18;1.50;;;;;;;16.25;63.37;99119.41;4485245;32;20373;-81
2022/10/26 03:47:33;;;;;;;5.22;1.52;;;;;;;16.23;63.39;99126.66;4486068;31;20490;-81
2022/10/26 03:49:59;;;;;;;6.22;1.60;;;;;;;16.26;63.33;99137.03;4486004;32;20104;-81
2022/10/26 03:52:24;;;;;;;8.20;1.45;;;;;;;16.20;63.43;99137.47;4484790;32;20521;-81
2022/10/26 03:54:53;;;;;;;4.55;1.50;;;;;;;16.20;63.39;99133.00;4485204;32;20184;-81
2022/10/26 03:57:18;;;;;;;2.87;1.15;;;;;;;16.21;63.35;99134.72;4488181;31;20085;-81
2022/10/26 03:59:43;;;;;;;6.90;1.90;;;;;;;16.18;63.34;99139.41;4486663;32;20115;-81
2022/10/26 04:02:10;;;;;;;4.62;1.40;;;;;;;16.19;63.37;99139.31;4487912;32;20092;-81
2022/10/26 04:04:36;;;;;;;6.37;1.83;;;;;;;16.09;63.44;99138.28;4488147;31;20104;-81
2022/10/26 04:07:01;;;;;;;5.55;1.50;;;;;;;16.18;63.25;99140.25;4498316;31;20159;-80
2022/10/26 04:09:27;;;;;;;4.32;1.30;;;;;;;16.06;63.28;99143.81;4503733;31;20322;-80
2022/10/26 04:11:52;;;;;;;3.47;1.15;;;;;;;16.03;63.25;99151.97;4503455;31;20506;-80
2022/10/26 04:14:17;;;;;;;5.40;1.20;;;;;;;15.91;63.32;99149.22;4503763;31;20114;-81
2022/10/26 04:16:43;;;;;;;6.50;1.40;;;;;;;15.84;63.05;99147.13;4502592;31;20095;-81
2022/10/26 04:19:08;;;;;;;3.70;1.02;;;;;;;16.01;62.79;99149.47;4503706;31;20092;-81
2022/10/26 04:21:34;;;;;;;6.05;1.30;;;;;;;16.18;62.27;99150.03;4503720;31;20088;-81
2022/10/26 04:24:00;;;;;;;4.07;1.17;;;;;;;16.08;62.52;99145.38;4503838;31;20092;-80
2022/10/26 04:26:25;;;;;;;5.20;1.27;;;;;;;15.87;63.23;99142.44;4502466;31;20092;-80
2022/10/26 04:28:54;;;;;;;5.72;1.35;;;;;;;16.07;62.48;99148.13;4503581;31;20333;-82
2022/10/26 04:31:19;;;;;;;7.03;1.33;;;;;;;15.99;62.76;99143.38;4503853;31;20365;-81
2022/10/26 04:33:44;;;;;;;6.43;1.48;;;;;;;15.98;62.78;99147.00;4503953;31;20110;-81
2022/10/26 04:36:10;;;;;;;3.83;1.30;;;;;;;16.12;62.10;99140.69;4502497;31;20132;-81
2022/10/26 04:38:35;;;;;;;5.90;1.90;;;;;;;16.22;61.67;99141.72;4503781;31;20085;-81
2022/10/26 04:41:01;;;;;;;7.53;1.50;;;;;;;16.14;62.03;99145.91;4502714;31;20108;-80
2022/10/26 04:43:26;;;;;;;4.30;1.30;;;;;;;16.14;61.99;99145.91;4503802;31;20088;-81
2022/10/26 04:45:55;;;;;;;6.18;1.50;;;;;;;16.12;61.97;99138.88;4502629;31;20176;-84
2022/10/26 04:48:21;;;;;;;7.10;1.33;;;;;;;16.08;62.04;99142.72;4503736;31;20088;-81
2022/10/26 04:50:46;;;;;;;5.18;1.40;;;;;;;16.12;61.91;99138.03;4488981;31;20128;-84
2022/10/26 04:53:12;;;;;;;7.28;2.00;;;;;;;15.93;62.80;99146.47;4503508;31;20083;-84
2022/10/26 04:55:37;;;;;;;5.28;1.60;;;;;;;15.89;63.04;99145.00;4502151;31;20088;-84
2022/10/26 04:58:03;;;;;;;5.15;1.60;;;;;;;15.92;62.81;99135.00;4502291;31;20472;-83
2022/10/26 05:00:31;;;;;;;6.85;1.77;;;;;;;15.92;62.83;99144.78;4503623;31;20103;-83
2022/10/26 05:03:03;;;;;;;;;;;;;;;15.90;62.81;99142.22;4502685;31;20108;-83
2022/10/26 05:05:30;;;;;;;8.27;1.70;;;;;;;15.99;62.61;99140.72;4502449;31;20051;-84
2022/10/26 05:07:56;;;;;;;4.07;1.45;;;;;;;15.92;62.75;99135.00;4502140;31;20110;-82
2022/10/26 05:10:22;;;;;;;6.22;1.67;;;;;;;15.87;62.84;99142.44;4494224;31;20112;-83
2022/10/26 05:12:52;;;;;;;6.12;1.52;;;;;;;15.88;62.86;99141.50;4488040;31;20123;-83
2022/10/26 05:15:17;;;;;;;5.75;1.77;;;;;;;15.84;62.96;99140.03;4476518;32;20156;-82
2022/10/26 05:17:43;;;;;;;8.02;2.08;;;;;;;15.84;62.99;99144.47;4483206;31;20092;-81
2022/10/26 05:20:12;;;;;;;4.87;1.70;;;;;;;15.84;63.03;99145.34;4472642;31;20171;-82
2022/10/26 05:22:37;;;;;;;6.25;1.70;;;;;;;15.79;63.25;99150.09;4482072;32;20127;-83
2022/10/26 05:25:03;;;;;;;6.12;1.90;;;;;;;15.81;63.32;99157.97;4466170;31;20156;-82
2022/10/26 05:27:29;;;;;;;5.30;1.55;;;;;;;15.77;63.42;99153.84;4475523;32;20080;-82
2022/10/26 05:29:54;;;;;;;8.85;1.87;;;;;;;15.82;63.22;99155.22;4498776;31;20140;-82
2022/10/26 05:32:19;;;;;;;5.78;1.58;;;;;;;15.80;63.25;99158.91;4462013;31;20104;-82
2022/10/26 05:34:45;;;;;;;7.82;1.92;;;;;;;15.81;63.27;99160.63;4467669;32;20132;-83
2022/10/26 05:37:10;;;;;;;5.53;2.12;;;;;;;15.77;63.39;99167.97;4494963;31;20127;-86
2022/10/26 05:39:36;;;;;;;5.50;2.03;;;;;;;15.85;63.39;99162.09;4474631;32;20130;-84
2022/10/26 05:42:01;;;;;;;6.60;2.10;;;;;;;15.83;63.55;99162.22;4498832;31;20384;-82
2022/10/26 05:44:26;;;;;;;6.43;1.90;;;;;;;15.91;63.54;99165.16;4488060;31;20116;-87
2022/10/26 05:46:52;;;;;;;8.73;2.15;;;;;;;15.92;63.61;99169.53;4494051;31;20106;-86
2022/10/26 05:49:17;;;;;;;5.70;2.00;;;;;;;15.65;64.11;99164.31;4498378;31;20096;-84
2022/10/26 05:51:43;;;;;;;7.50;2.08;;;;;;;15.75;64.05;99169.87;4493512;31;20106;-79
2022/10/26 05:54:08;;;;;;;7.90;2.12;;;;;;;15.82;63.90;99176.47;4476853;31;20176;-85
2022/10/26 05:56:36;;;;;;;7.82;2.25;;;;;;;15.97;63.74;99168.38;4492398;31;20147;-82
2022/10/26 05:59:02;;;;;;;7.82;2.20;;;;;;;15.79;64.22;99171.34;4475739;32;20159;-83
2022/10/26 06:01:31;;;;;;;7.45;2.42;;;;;;;15.78;64.14;99174.12;4480590;31;20108;-84
2022/10/26 06:04:13;;;;;;;9.73;3.12;;;;;;;15.88;63.50;99181.34;4485408;31;162252;-84
2022/10/26 06:06:44;;;;;;;8.55;2.80;;;;;;;15.96;62.94;99177.31;4477582;31;20103;-84
2022/10/26 06:09:13;;;;;;;8.45;2.90;;;;;;;16.14;62.32;99183.13;4476439;32;20123;-83
2022/10/26 06:11:39;;;;;;;9.23;3.05;;;;;;;16.20;62.06;99180.03;4492097;31;20100;-83
2022/10/26 06:14:06;;;;;;;8.73;2.90;;;;;;;16.27;61.80;99176.81;4476783;31;20201;-83
2022/10/26 06:16:56;;;;;;;10.07;3.33;;;;;;;16.30;61.64;99189.91;4477196;32;20131;-82
2022/10/26 06:19:46;;;;;;;12.43;3.70;;;;;;;16.25;61.69;99188.53;4482792;31;20069;-82
2022/10/26 06:22:38;;;;;;;11.55;3.60;;;;;;;16.34;61.39;99193.19;4477852;31;20505;-82
2022/10/26 06:25:35;;;;;;;11.00;3.47;;;;;;;16.43;60.95;99197.81;4478566;31;20123;-82
2022/10/26 06:28:19;;;;;;;9.20;3.10;;;;;;;16.48;60.94;99197.50;4485995;31;20096;-82
2022/10/26 06:30:45;;;;;;;10.35;3.40;;;;;;;16.48;61.17;99192.19;4477608;31;20111;-81
2022/10/26 06:33:11;;;;;;;11.20;3.50;;;;;;;16.60;61.04;99196.59;4490177;31;20419;-83
2022/10/26 06:35:40;;;;;;;9.40;3.40;;;;;;;16.45;61.43;99198.56;4472682;32;20108;-81
2022/10/26 06:38:18;;;;;;;9.85;3.20;;;;;;;16.65;60.68;99209.56;4487420;31;20158;-81
2022/10/26 06:40:47;;;;;;;11.98;3.45;;;;;;;16.74;60.46;99198.25;4481932;31;20116;-82
2022/10/26 06:43:22;;;;;;;8.77;3.12;;;;;;;16.86;59.92;99197.38;4485764;31;20380;-84
2022/10/26 06:46:09;;;;;;;8.88;3.20;;;;;;;16.86;60.08;99196.53;4472161;32;20092;-83
2022/10/26 06:48:55;;;;;;;8.32;3.10;;;;;;;16.76;60.28;99192.81;4485479;31;20421;-86
2022/10/26 06:51:22;;;;;;;8.88;3.05;;;;;;;16.92;60.01;99201.41;4485928;32;20389;-87
2022/10/26 06:53:58;;;;;;;10.32;4.05;;;;;;;16.95;59.84;99205.66;4484327;32;20134;-87
2022/10/26 06:56:25;;;;;;;10.95;4.10;;;;;;;16.51;60.70;99214.09;4485869;32;20096;-87
2022/10/26 06:58:52;;;;;;;10.65;3.45;;;;;;;16.45;60.63;99213.66;4486829;31;20201;-87
2022/10/26 07:01:18;;;;;;;12.07;4.55;;;;;;;16.48;60.80;99224.09;4486890;31;20092;-86
2022/10/26 07:03:43;;;;;;;10.75;3.97;;;;;;;16.71;59.95;99214.44;4486782;31;20338;-87
2022/10/26 07:06:09;;;;;;;10.93;4.28;;;;;;;16.92;59.40;99213.84;4486818;31;20446;-87
2022/10/26 07:08:34;;;;;;;12.23;4.28;;;;;;;17.00;59.20;99208.81;4485173;32;20428;-87
2022/10/26 07:11:00;;;;;;;9.60;4.18;;;;;;;17.07;58.65;99213.59;4486299;32;20097;-87
2022/10/26 07:13:25;;;;;;;12.07;4.43;;;;;;;17.12;58.48;99217.72;4486720;31;20089;-87
2022/10/26 07:15:51;;;;;;;12.98;4.80;;;;;;;17.23;58.13;99213.28;4486404;31;20456;-87
2022/10/26 07:18:16;;;;;;;10.15;4.85;;;;;;;17.20;58.37;99208.16;4486513;31;20368;-87
2022/10/26 07:20:41;;;;;;;11.35;4.93;;;;;;;17.36;58.01;99215.00;4486406;31;20444;-87
2022/10/26 07:23:10;;;;;;;12.48;4.60;;;;;;;17.34;58.02;99214.25;4485220;32;20173;-87
2022/10/26 07:25:38;;;;;;;12.70;5.87;;;;;;;17.41;57.76;99210.19;4486376;31;20115;-87
2022/10/26 07:28:05;;;;;;;13.52;6.30;;;;;;;17.40;57.66;99213.78;4486173;31;20131;-87
2022/10/26 07:30:30;;;;;;;17.50;7.40;;;;;;;17.44;57.52;99229.44;4488090;31;20092;-87
2022/10/26 07:33:05;;;;;;;19.08;8.50;;;;;;;17.08;58.47;99225.06;4487038;32;20124;-87
2022/10/26 07:35:32;;;;;;;19.10;10.10;;;;;;;17.35;57.46;99219.47;4487044;32;20482;-87
2022/10/26 07:37:58;;;;;;;21.73;10.35;;;;;;;17.42;57.17;99219.84;4487080;32;20436;-87
2022/10/26 07:40:24;;;;;;;26.02;11.68;;;;;;;17.48;56.81;99222.91;4473811;32;20150;-87
2022/10/26 07:42:49;;;;;;;19.95;9.95;;;;;;;17.60;56.50;99222.94;4487085;32;20099;-87
2022/10/26 07:45:15;;;;;;;21.02;9.82;;;;;;;17.63;56.57;99228.88;4486955;32;20096;-87
2022/10/26 07:47:40;;;;;;;19.67;9.15;;;;;;;17.69;56.68;99216.87;4486821;32;20119;-87
2022/10/26 07:50:07;;;;;;;16.45;8.63;;;;;;;17.64;57.37;99217.25;4488189;31;20119;-87
2022/10/26 07:52:34;;;;;;;19.05;8.63;;;;;;;17.35;58.88;99224.81;4487022;32;20108;-87
2022/10/26 07:55:00;;;;;;;17.55;8.13;;;;;;;17.72;58.18;99216.66;4487309;32;20103;-87
2022/10/26 07:57:25;;;;;;;18.80;8.18;;;;;;;17.76;58.63;99211.94;4488370;31;20130;-87
2022/10/26 07:59:51;;;;;;;13.35;5.85;;;;;;;17.95;58.47;99212.25;4486827;32;20119;-87
2022/10/26 08:02:16;;;;;;;14.23;6.40;;;;;;;18.02;58.46;99208.13;4488079;31;20402;-87
2022/10/26 08:04:42;;;;;;;15.73;7.90;;;;;;;18.09;58.43;99208.47;4488059;31;20096;-87
2022/10/26 08:07:08;;;;;;;17.37;7.80;;;;;;;18.18;57.79;99205.09;4486831;32;20080;-87
2022/10/26 08:09:33;;;;;;;17.58;9.00;;;;;;;18.31;57.61;99204.09;4486647;32;20142;-87
2022/10/26 08:11:59;;;;;;;22.27;9.82;;;;;;;18.32;57.60;99205.81;4487896;31;20096;-87
2022/10/26 08:14:24;;;;;;;18.77;9.23;;;;;;;18.51;56.62;99206.03;4487969;31;20088;-87
2022/10/26 08:16:51;;;;;;;16.87;8.68;;;;;;;18.47;56.59;99205.41;4487877;31;20092;-87
2022/10/26 08:19:17;;;;;;;19.67;9.57;;;;;;;18.62;56.00;99199.81;4486668;32;20130;-87
2022/10/26 08:21:42;;;;;;;17.50;8.75;;;;;;;18.67;55.79;99206.47;4487979;31;20127;-87
2022/10/26 08:24:08;;;;;;;19.92;9.18;;;;;;;18.72;55.75;99207.94;4487917;31;20076;-88
2022/10/26 08:26:33;;;;;;;19.37;9.90;;;;;;;18.69;55.77;99208.19;4487890;32;20123;-87
2022/10/26 08:28:59;;;;;;;18.35;9.50;;;;;;;18.72;55.96;99213.28;4487820;31;20096;-87
2022/10/26 08:31:24;;;;;;;16.92;7.53;;;;;;;18.59;56.65;99211.59;4487811;31;20157;-87
2022/10/26 08:33:50;;;;;;;14.93;6.50;;;;;;;18.73;56.62;99210.47;4487641;31;20085;-87
2022/10/26 08:36:24;;;;;;;14.00;5.28;;;;;;;18.85;57.15;99211.31;4487820;31;20479;-87
2022/10/26 08:38:49;;;;;;;11.85;4.47;;;;;;;18.88;57.87;99215.56;4487770;31;20165;-87
2022/10/26 08:41:14;;;;;;;12.15;4.45;;;;;;;19.02;57.96;99213.44;4487348;31;20125;-87
2022/10/26 08:43:46;;;;;;;13.80;4.85;;;;;;;18.90;58.82;99213.59;4486940;32;20119;-87
2022/10/26 08:46:11;;;;;;;13.18;5.25;;;;;;;18.77;59.73;99211.91;4486853;32;20099;-87
2022/10/26 08:48:59;;;;;;;13.00;4.47;;;;;;;18.83;59.63;99223.94;4487637;31;20436;-87
2022/10/26 08:51:29;;;;;;;12.75;4.85;;;;;;;18.89;59.79;99218.13;4486360;32;20117;-87
2022/10/26 08:54:02;;;;;;;11.90;4.45;;;;;;;19.06;59.33;99222.03;4486482;32;20092;-87
2022/10/26 08:56:34;;;;;;;10.98;4.47;;;;;;;18.82;60.39;99220.41;4473481;32;20509;-88
2022/10/26 08:59:24;;;;;;;11.12;4.70;;;;;;;18.75;60.40;99226.34;4486489;32;20112;-88
2022/10/26 09:01:49;;;;;;;12.27;4.28;;;;;;;19.10;59.48;99233.31;4487755;31;20088;-87
2022/10/26 09:04:15;;;;;;;11.20;4.03;;;;;;;19.24;59.11;99233.03;4487506;31;20122;-87
2022/10/26 09:06:56;;;;;;;11.15;3.60;;;;;;;19.23;58.97;99232.16;4486346;32;20115;-87
2022/10/26 09:10:00;;;;;;;9.82;3.65;;;;;;;19.36;58.67;99233.81;4487544;31;20100;-87
2022/10/26 09:12:49;;;;;;;10.73;3.83;;;;;;;19.37;58.96;99236.38;4472555;32;20427;-87
2022/10/26 09:15:20;;;;;;;12.23;3.80;;;;;;;19.14;58.97;99232.09;4486528;32;20088;-87
2022/10/26 09:18:01;;;;;;;10.90;4.50;;;;;;;18.98;59.22;99232.50;4486275;32;20170;-88
2022/10/26 09:20:45;;;;;;;12.20;5.70;;;;;;;19.59;57.66;99232.72;4487642;31;20122;-87
2022/10/26 09:23:21;;;;;;;13.32;6.20;;;;;;;19.33;58.61;99240.25;4486288;32;20100;-88
2022/10/26 09:26:00;;;;;;;15.65;6.32;;;;;;;19.50;58.63;99243.34;4487520;31;20106;-87
2022/10/26 09:28:31;;;;;;;14.43;6.62;;;;;;;19.66;58.18;99235.72;4473037;32;20076;-87
2022/10/26 09:30:58;;;;;;;13.95;6.80;;;;;;;19.72;58.15;99245.94;4486101;32;20108;-88
2022/10/26 09:33:25;;;;;;;16.50;7.20;;;;;;;19.92;57.24;99254.06;4486233;32;20745;-88
2022/10/26 09:36:00;;;;;;;14.50;6.70;;;;;;;20.05;56.43;99249.38;4486273;32;20092;-87
2022/10/26 09:38:31;;;;;;;13.75;6.60;;;;;;;20.23;56.05;99253.09;4486277;32;20110;-88
2022/10/26 09:41:15;;;;;;;16.52;6.68;;;;;;;20.28;55.85;99251.84;4486151;32;20217;-88
2022/10/26 09:43:54;;;;;;;13.38;6.10;;;;;;;20.28;55.43;99251.84;4487349;32;20403;-88
2022/10/26 09:46:25;;;;;;;13.75;6.25;;;;;;;20.20;55.60;99252.50;4486304;32;20527;-87
2022/10/26 09:48:54;;;;;;;14.87;6.50;;;;;;;20.26;55.18;99251.12;4487210;31;20136;-87
2022/10/26 09:51:19;;;;;;;14.65;6.78;;;;;;;19.92;56.28;99254.06;4486269;32;20100;-87
2022/10/26 09:53:46;;;;;;;17.70;7.12;;;;;;;20.07;55.99;99255.44;4486994;31;20136;-87
2022/10/26 09:56:13;;;;;;;16.00;6.65;;;;;;;20.01;56.49;99255.94;4485763;32;20157;-88
2022/10/26 09:58:51;;;;;;;14.27;5.57;;;;;;;20.23;56.23;99254.94;4487210;31;20084;-88
2022/10/26 10:01:26;;;;;;;13.70;5.47;;;;;;;20.13;56.61;99251.38;4487181;31;20089;-87
2022/10/26 10:04:19;;;;;;;15.20;5.62;;;;;;;20.39;55.71;99257.94;4487110;31;20092;-87
2022/10/26 10:06:46;;;;;;;14.18;5.40;;;;;;;20.63;54.83;99254.13;4487208;31;20107;-88
2022/10/26 10:09:12;;;;;;;14.73;5.85;;;;;;;20.85;54.31;99260.25;4486979;31;20589;-88
2022/10/26 10:11:39;;;;;;;16.80;5.62;;;;;;;21.02;53.92;99257.72;4485776;32;20101;-88
2022/10/26 10:14:14;;;;;;;16.73;5.43;;;;;;;21.20;53.37;99265.91;4485960;32;20139;-88
2022/10/26 10:16:39;;;;;;;18.05;5.75;;;;;;;21.13;53.66;99263.94;4486027;32;20144;-88
2022/10/26 10:19:05;;;;;;;13.82;4.60;;;;;;;20.99;54.35;99260.66;4485850;32;20170;-88
2022/10/26 10:21:38;;;;;;;12.05;4.72;;;;;;;21.28;53.51;99265.22;4486997;31;20452;-87
2022/10/26 10:24:34;;;;;;;15.60;5.78;;;;;;;21.21;52.93;99266.78;4487090;31;20104;-88
2022/10/26 10:27:14;;;;;;;14.60;5.28;;;;;;;21.54;52.61;99265.53;4484023;32;20456;-88
2022/10/26 10:29:41;;;;;;;11.77;4.18;;;;;;;21.59;52.57;99257.94;4487035;32;20129;-87
2022/10/26 10:32:39;;;;;;;12.68;4.30;;;;;;;21.55;51.88;99261.00;4485835;32;20108;-87
2022/10/26 10:35:22;;;;;;;11.15;3.12;;;;;;;21.56;51.64;99262.72;4422595;32;20171;-88
2022/10/26 10:37:49;;;;;;;12.63;3.35;;;;;;;21.26;52.00;99261.81;4410154;32;20181;-88
2022/10/26 10:40:23;;;;;;;14.75;5.68;;;;;;;21.32;51.91;99255.06;4410172;32;20105;-87
2022/10/26 10:42:50;;;;;;;18.92;7.85;;;;;;;21.32;52.80;99255.91;4422781;32;20102;-87
2022/10/26 10:45:24;;;;;;;20.00;8.73;;;;;;;21.74;52.11;99252.09;4422458;32;20340;-88
2022/10/26 10:48:14;;;;;;;23.08;8.45;;;;;;;21.87;51.35;99251.81;4422607;32;20089;-87
2022/10/26 10:51:03;;;;;;;17.85;7.45;;;;;;;22.00;51.14;99252.34;4409719;32;20247;-86
2022/10/26 10:53:37;;;;;;;19.75;7.93;;;;;;;22.09;50.79;99242.56;4409763;32;20125;-87
2022/10/26 10:56:24;;;;;;;20.83;9.27;;;;;;;22.12;50.41;99247.66;4422539;32;20117;-87
2022/10/26 10:59:14;;;;;;;25.05;9.32;;;;;;;22.10;49.95;99246.94;4422525;32;20472;-87
2022/10/26 11:02:20;;;;;;;22.45;10.07;;;;;;;22.20;49.89;99247.75;4422457;32;20078;-87
2022/10/26 11:05:11;;;;;;;25.37;10.55;;;;;;;22.26;49.61;99239.13;4346367;33;20111;-87
2022/10/26 11:07:49;;;;;;;26.42;12.18;;;;;;;22.24;49.85;99241.09;4347060;33;20162;-87
2022/10/26 11:10:16;;;;;;;25.62;11.05;;;;;;;22.05;50.05;99246.53;4353048;32;20120;-87
2022/10/26 11:12:49;;;;;;;25.07;11.53;;;;;;;22.20;49.89;99245.06;4394430;32;20131;-87
2022/10/26 11:15:18;;;;;;;25.08;12.05;;;;;;;22.25;49.73;99244.66;4406891;32;20237;-87
2022/10/26 11:18:08;;;;;;;26.33;12.20;;;;;;;22.29;49.58;99248.72;4394551;32;20163;-87
2022/10/26 11:20:37;;;;;;;26.48;11.73;;;;;;;22.19;49.78;99243.38;4394211;32;20120;-87
2022/10/26 11:23:17;;;;;;;29.75;13.32;;;;;;;22.10;49.70;99247.78;4393940;32;20197;-87
2022/10/26 11:25:54;;;;;;;30.75;13.15;;;;;;;22.08;49.92;99247.09;4394258;32;20105;-87
2022/10/26 11:28:32;;;;;;;27.37;12.45;;;;;;;22.07;49.97;99237.34;4394041;32;20107;-87
2022/10/26 11:31:02;;;;;;;29.00;12.65;;;;;;;22.01;50.12;99245.97;4406809;32;20090;-87
2022/10/26 11:33:35;;;;;;;22.62;10.48;;;;;;;21.98;50.25;99239.06;4393821;32;20121;-87
2022/10/26 11:36:04;;;;;;;22.62;10.90;;;;;;;21.96;49.88;99248.22;4381314;32;20097;-87
2022/10/26 11:38:57;;;;;;;24.98;11.77;;;;;;;21.88;49.91;99237.41;4393923;32;20098;-87
2022/10/26 11:41:36;;;;;;;23.02;11.18;;;;;;;21.76;50.13;99236.72;4440027;32;20114;-88
2022/10/26 11:44:05;;;;;;;;;;;;;;;21.55;50.65;99243.09;4485327;32;20653;-87